Time;durP1;ratioP1;P1;durP2;ratioP2;P2;SDS_P1;SDS_P2;PMS_P1;PMS_P2;Temp;Humidity;BMP_temperature;BMP_pressure;BME280_temperature;BME280_humidity;BME280_pressure;Samples;Min_cycle;Max_cycle;Signal;HPM_P1;HPM_P2
2022/02/18 00:00:45;;;;;;;21.23;3.92;;;;;;;;;;5095378;28;20151;-69
2022/02/18 00:03:12;;;;;;;;;;;;;;;;;;5097299;28;20051;-69
2022/02/18 00:05:38;;;;;;;11.52;2.67;;;;;;;;;;5094511;28;19979;-69
2022/02/18 00:08:05;;;;;;;15.98;2.88;;;;;;;;;;5094590;28;20075;-69
2022/02/18 00:10:32;;;;;;;19.73;2.38;;;;;;;;;;5098347;28;20088;-69
2022/02/18 00:12:58;;;;;;;20.42;2.45;;;;;;;;;;5101265;28;20126;-69
2022/02/18 00:15:25;;;;;;;20.07;2.73;;;;;;;;;;5091927;28;20043;-69
2022/02/18 00:17:51;;;;;;;20.50;2.50;;;;;;;;;;5097172;28;20381;-69
2022/02/18 00:20:18;;;;;;;15.23;2.60;;;;;;;;;;5094683;28;20425;-69
2022/02/18 00:22:44;;;;;;;16.50;2.83;;;;;;;;;;5096768;28;20083;-70
2022/02/18 00:25:11;;;;;;;16.88;2.70;;;;;;;;;;5096701;28;20127;-69
2022/02/18 00:27:38;;;;;;;17.90;2.00;;;;;;;;;;5101430;27;20112;-69
2022/02/18 00:30:06;;;;;;;18.13;2.38;;;;;;;;;;5101058;28;20082;-69
2022/02/18 00:32:33;;;;;;;23.77;2.80;;;;;;;;;;5100188;28;20147;-69
2022/02/18 00:34:59;;;;;;;24.58;2.90;;;;;;;;;;5098196;28;20119;-69
2022/02/18 00:37:27;;;;;;;21.98;2.72;;;;;;;;;;5098683;27;20130;-69
2022/02/18 00:39:56;;;;;;;21.55;3.05;;;;;;;;;;5100509;28;20054;-69
2022/02/18 00:42:23;;;;;;;26.88;3.33;;;;;;;;;;5096682;28;20095;-69
2022/02/18 00:44:50;;;;;;;17.73;2.80;;;;;;;;;;5096873;28;20300;-69
2022/02/18 00:47:18;;;;;;;17.83;2.42;;;;;;;;;;5101341;28;20376;-69
2022/02/18 00:49:45;;;;;;;21.98;2.55;;;;;;;;;;5098167;28;20079;-69
2022/02/18 00:52:12;;;;;;;17.77;3.20;;;;;;;;;;5099781;28;20139;-69
2022/02/18 00:54:38;;;;;;;31.02;3.47;;;;;;;;;;5099932;27;20091;-69
2022/02/18 00:57:05;;;;;;;30.55;4.15;;;;;;;;;;5090388;28;20490;-69
2022/02/18 00:59:31;;;;;;;20.40;3.33;;;;;;;;;;5090037;28;20109;-69
2022/02/18 01:02:05;;;;;;;24.67;3.55;;;;;;;;;;5090949;28;20174;-69
2022/02/18 01:04:32;;;;;;;24.70;3.72;;;;;;;;;;5095503;28;22201;-69
2022/02/18 01:06:58;;;;;;;23.02;3.13;;;;;;;;;;5089143;28;20766;-69
2022/02/18 01:09:32;;;;;;;21.48;3.38;;;;;;;;;;5088012;28;20069;-69
2022/02/18 01:11:59;;;;;;;26.70;3.72;;;;;;;;;;5078041;28;20075;-70
2022/02/18 01:14:25;;;;;;;24.98;3.15;;;;;;;;;;5095290;28;20122;-69
2022/02/18 01:16:59;;;;;;;15.82;2.13;;;;;;;;;;5097292;27;20580;-69
2022/02/18 01:19:25;;;;;;;26.95;3.22;;;;;;;;;;5091388;28;20571;-69
2022/02/18 01:21:51;;;;;;;20.85;2.97;;;;;;;;;;5088186;28;20432;-69
2022/02/18 01:24:24;;;;;;;31.13;2.83;;;;;;;;;;5088133;28;20570;-69
2022/02/18 01:26:51;;;;;;;22.48;4.18;;;;;;;;;;5093734;28;20483;-69
2022/02/18 01:29:23;;;;;;;29.80;2.92;;;;;;;;;;5089764;28;20140;-69
2022/02/18 01:31:57;;;;;;;19.70;3.20;;;;;;;;;;5089033;28;20087;-69
2022/02/18 01:34:23;;;;;;;29.85;3.38;;;;;;;;;;5095614;28;20660;-69
2022/02/18 01:36:49;;;;;;;17.48;3.17;;;;;;;;;;5096523;28;20477;-69
2022/02/18 01:39:18;;;;;;;19.90;2.80;;;;;;;;;;5098334;28;20051;-69
2022/02/18 01:41:45;;;;;;;26.17;3.63;;;;;;;;;;5097857;28;20105;-69
2022/02/18 01:44:11;;;;;;;22.42;3.55;;;;;;;;;;5094602;28;20086;-70
2022/02/18 01:46:38;;;;;;;22.50;3.17;;;;;;;;;;5096944;28;20087;-69
2022/02/18 01:49:04;;;;;;;19.92;3.13;;;;;;;;;;5096586;28;20069;-69
2022/02/18 01:51:30;;;;;;;18.02;2.75;;;;;;;;;;5098070;28;20083;-69
2022/02/18 01:54:04;;;;;;;21.75;2.97;;;;;;;;;;5096983;28;20127;-69
2022/02/18 01:56:31;;;;;;;21.50;2.80;;;;;;;;;;5097915;28;20079;-69
2022/02/18 01:58:58;;;;;;;19.45;3.20;;;;;;;;;;5099888;28;20040;-69
2022/02/18 02:01:31;;;;;;;20.98;3.20;;;;;;;;;;5100025;27;20478;-69
2022/02/18 02:03:57;;;;;;;19.83;3.13;;;;;;;;;;5099892;28;20084;-69
2022/02/18 02:06:23;;;;;;;18.13;3.15;;;;;;;;;;5096223;27;20328;-69
2022/02/18 02:08:57;;;;;;;21.45;2.67;;;;;;;;;;5097908;28;20656;-69
2022/02/18 02:11:23;;;;;;;23.08;3.55;;;;;;;;;;5098597;28;20531;-69
2022/02/18 02:13:50;;;;;;;24.35;3.33;;;;;;;;;;5097955;28;20571;-69
2022/02/18 02:16:24;;;;;;;15.77;2.53;;;;;;;;;;5100393;27;20071;-70
2022/02/18 02:18:50;;;;;;;17.45;2.70;;;;;;;;;;5096799;28;20636;-69
2022/02/18 02:21:16;;;;;;;22.80;2.70;;;;;;;;;;5096645;28;20123;-69
2022/02/18 02:23:46;;;;;;;23.42;3.67;;;;;;;;;;5097347;28;20119;-69
2022/02/18 02:26:13;;;;;;;27.33;3.45;;;;;;;;;;5096891;28;20064;-69
2022/02/18 02:28:40;;;;;;;13.35;2.65;;;;;;;;;;5096191;28;20117;-69
2022/02/18 02:31:07;;;;;;;22.75;3.40;;;;;;;;;;5098969;28;20044;-69
2022/02/18 02:33:33;;;;;;;19.40;2.47;;;;;;;;;;5100963;28;20126;-69
2022/02/18 02:36:00;;;;;;;20.23;3.40;;;;;;;;;;5096821;28;20135;-69
2022/02/18 02:38:33;;;;;;;21.45;2.83;;;;;;;;;;5096405;28;20091;-69
2022/02/18 02:41:00;;;;;;;21.77;2.85;;;;;;;;;;5095818;28;20539;-69
2022/02/18 02:43:28;;;;;;;21.92;2.30;;;;;;;;;;5100261;27;20135;-69
2022/02/18 02:45:55;;;;;;;16.90;2.47;;;;;;;;;;5097071;28;20135;-69
2022/02/18 02:48:21;;;;;;;18.45;2.50;;;;;;;;;;5099462;28;20130;-69
2022/02/18 02:50:48;;;;;;;19.27;2.83;;;;;;;;;;5094915;28;20118;-69
2022/02/18 02:53:21;;;;;;;27.25;4.95;;;;;;;;;;5099964;28;20594;-69
2022/02/18 02:55:50;;;;;;;22.10;3.28;;;;;;;;;;5097093;28;20787;-69
2022/02/18 02:58:16;;;;;;;27.63;2.30;;;;;;;;;;5094953;28;20544;-69
2022/02/18 03:00:51;;;;;;;23.58;3.05;;;;;;;;;;5100562;27;20134;-69
2022/02/18 03:03:18;;;;;;;15.23;2.83;;;;;;;;;;5095674;28;20047;-69
2022/02/18 03:05:44;;;;;;;22.90;3.83;;;;;;;;;;5104415;28;20090;-69
2022/02/18 03:08:18;;;;;;;16.50;3.92;;;;;;;;;;5096027;28;20470;-69
2022/02/18 03:11:14;;;;;;;16.35;3.50;;;;;;;;;;5096451;28;20094;-69
2022/02/18 03:13:32;;;;;;;13.82;2.67;;;;;;;;;;5095943;28;20079;-70
2022/02/18 03:15:59;;;;;;;21.17;2.73;;;;;;;;;;5099261;28;20052;-69
2022/02/18 03:18:25;;;;;;;14.13;2.33;;;;;;;;;;5096498;28;20586;-69
2022/02/18 03:20:51;;;;;;;18.75;2.47;;;;;;;;;;5095895;28;20329;-69
2022/02/18 03:23:18;;;;;;;18.88;3.20;;;;;;;;;;5095202;28;20078;-69
2022/02/18 03:25:44;;;;;;;15.60;2.42;;;;;;;;;;5094674;28;20127;-69
2022/02/18 03:28:18;;;;;;;16.02;2.45;;;;;;;;;;5095929;28;20048;-69
2022/02/18 03:30:44;;;;;;;14.82;2.63;;;;;;;;;;5094253;28;20139;-70
2022/02/18 03:33:11;;;;;;;10.75;2.90;;;;;;;;;;5092870;28;20511;-69
2022/02/18 03:35:45;;;;;;;19.38;2.40;;;;;;;;;;5086998;28;20135;-69
2022/02/18 03:38:11;;;;;;;20.58;2.70;;;;;;;;;;5087225;28;20059;-69
2022/02/18 03:40:38;;;;;;;16.63;3.42;;;;;;;;;;5087136;28;20047;-69
2022/02/18 03:43:04;;;;;;;19.53;3.37;;;;;;;;;;5086697;28;20134;-69
2022/02/18 03:45:31;;;;;;;12.25;2.22;;;;;;;;;;5092090;28;20749;-70
2022/02/18 03:47:57;;;;;;;20.75;2.80;;;;;;;;;;5093166;28;20638;-69
2022/02/18 03:50:31;;;;;;;19.35;2.75;;;;;;;;;;5090978;28;20139;-69
2022/02/18 03:52:57;;;;;;;21.30;2.65;;;;;;;;;;5087610;27;20139;-69
2022/02/18 03:55:24;;;;;;;23.08;3.20;;;;;;;;;;5089698;28;20079;-69
2022/02/18 03:57:51;;;;;;;20.60;2.75;;;;;;;;;;5085670;28;20052;-69
2022/02/18 04:00:17;;;;;;;12.50;2.58;;;;;;;;;;5090783;28;20644;-69
2022/02/18 04:02:44;;;;;;;23.55;3.00;;;;;;;;;;5091203;28;20079;-69
2022/02/18 04:05:17;;;;;;;18.83;3.00;;;;;;;;;;5094588;28;20095;-70
2022/02/18 04:07:43;;;;;;;21.33;3.30;;;;;;;;;;5089208;28;20047;-69
2022/02/18 04:10:10;;;;;;;23.45;2.28;;;;;;;;;;5084613;28;20642;-68
2022/02/18 04:12:36;;;;;;;13.33;2.63;;;;;;;;;;5086840;28;20079;-69
2022/02/18 04:15:03;;;;;;;24.48;2.65;;;;;;;;;;5087790;28;20134;-69
2022/02/18 04:17:30;;;;;;;20.40;2.97;;;;;;;;;;5086089;28;20134;-69
2022/02/18 04:20:04;;;;;;;17.08;2.85;;;;;;;;;;5087554;28;20480;-69
2022/02/18 04:22:50;;;;;;;11.98;2.10;;;;;;;;;;5090519;28;20492;-69
2022/02/18 04:25:21;;;;;;;11.57;2.78;;;;;;;;;;5084999;28;20727;-69
2022/02/18 04:27:54;;;;;;;21.13;2.95;;;;;;;;;;5086239;28;20147;-69
2022/02/18 04:30:22;;;;;;;21.85;3.25;;;;;;;;;;5085689;28;20050;-69
2022/02/18 04:32:49;;;;;;;14.80;2.50;;;;;;;;;;5084886;28;20629;-69
2022/02/18 04:35:16;;;;;;;11.02;2.72;;;;;;;;;;5084793;28;20051;-70
2022/02/18 04:37:43;;;;;;;14.63;2.50;;;;;;;;;;5090182;28;20151;-69
2022/02/18 04:40:10;;;;;;;26.60;3.00;;;;;;;;;;5093032;28;20127;-69
2022/02/18 04:42:37;;;;;;;14.07;2.90;;;;;;;;;;5088015;28;20496;-70
2022/02/18 04:45:04;;;;;;;17.27;2.65;;;;;;;;;;5090934;28;20127;-69
2022/02/18 04:47:31;;;;;;;19.35;2.58;;;;;;;;;;5085096;28;20139;-69
2022/02/18 04:49:57;;;;;;;16.58;3.08;;;;;;;;;;5084685;28;20056;-69
2022/02/18 04:52:33;;;;;;;24.15;2.97;;;;;;;;;;5085125;28;20884;-69
2022/02/18 04:55:00;;;;;;;8.23;1.90;;;;;;;;;;5088162;28;20039;-69
2022/02/18 04:57:27;;;;;;;22.65;3.25;;;;;;;;;;5092606;28;20255;-69
2022/02/18 05:00:00;;;;;;;25.75;3.03;;;;;;;;;;5091605;28;20136;-69
2022/02/18 05:02:26;;;;;;;15.10;2.80;;;;;;;;;;5098345;28;20138;-71
2022/02/18 05:04:53;;;;;;;23.00;3.20;;;;;;;;;;5094503;28;20093;-70
2022/02/18 05:07:20;;;;;;;14.65;2.35;;;;;;;;;;5094054;28;20139;-69
2022/02/18 05:09:46;;;;;;;23.63;3.25;;;;;;;;;;5094273;28;20126;-69
2022/02/18 05:12:13;;;;;;;19.23;2.53;;;;;;;;;;5093142;28;20067;-69
2022/02/18 05:14:46;;;;;;;18.35;2.58;;;;;;;;;;5097057;28;20130;-69
2022/02/18 05:17:12;;;;;;;22.58;2.85;;;;;;;;;;5098880;28;20108;-69
2022/02/18 05:19:39;;;;;;;16.42;2.95;;;;;;;;;;5100853;28;20468;-69
2022/02/18 05:22:06;;;;;;;15.40;2.47;;;;;;;;;;5097464;28;20130;-69
2022/02/18 05:24:32;;;;;;;28.58;3.22;;;;;;;;;;5082280;28;20083;-69
2022/02/18 05:26:59;;;;;;;21.40;3.40;;;;;;;;;;5094432;28;20090;-69
2022/02/18 05:29:31;;;;;;;14.43;2.38;;;;;;;;;;5098117;28;20105;-69
2022/02/18 05:32:00;;;;;;;15.63;2.67;;;;;;;;;;5096277;28;20139;-69
2022/02/18 05:34:26;;;;;;;22.92;3.08;;;;;;;;;;5097710;28;20098;-69
2022/02/18 05:37:00;;;;;;;20.63;3.50;;;;;;;;;;5099542;27;20086;-69
2022/02/18 05:39:26;;;;;;;15.60;3.57;;;;;;;;;;5100198;27;20130;-69
2022/02/18 05:41:53;;;;;;;19.17;3.17;;;;;;;;;;5095250;28;20082;-69
2022/02/18 05:44:19;;;;;;;18.20;2.72;;;;;;;;;;5099226;28;20079;-69
2022/02/18 05:46:53;;;;;;;20.38;2.90;;;;;;;;;;5101272;28;20056;-70
2022/02/18 05:49:19;;;;;;;16.40;3.03;;;;;;;;;;5099779;28;20075;-69
2022/02/18 05:51:45;;;;;;;11.02;2.55;;;;;;;;;;5102049;28;20101;-70
2022/02/18 05:54:19;;;;;;;24.30;3.03;;;;;;;;;;5098082;28;20297;-69
2022/02/18 05:56:45;;;;;;;26.73;2.97;;;;;;;;;;5097758;27;20082;-69
2022/02/18 05:59:11;;;;;;;22.02;3.60;;;;;;;;;;5097784;28;20139;-69
2022/02/18 06:01:43;;;;;;;25.23;3.85;;;;;;;;;;5088761;28;20062;-69
2022/02/18 06:04:09;;;;;;;25.65;4.05;;;;;;;;;;5090534;28;20076;-69
2022/02/18 06:06:35;;;;;;;23.98;3.88;;;;;;;;;;5090272;28;20205;-68
2022/02/18 06:09:03;;;;;;;20.02;3.30;;;;;;;;;;5095659;27;20098;-69
2022/02/18 06:11:30;;;;;;;24.70;3.47;;;;;;;;;;5097287;28;20098;-69
2022/02/18 06:13:58;;;;;;;19.75;3.28;;;;;;;;;;5096193;28;20134;-69
2022/02/18 06:16:31;;;;;;;33.33;4.43;;;;;;;;;;5094698;28;20102;-70
2022/02/18 06:18:57;;;;;;;27.43;3.97;;;;;;;;;;5096591;28;20146;-69
2022/02/18 06:21:24;;;;;;;23.48;4.55;;;;;;;;;;5097734;28;20071;-69
2022/02/18 06:23:57;;;;;;;21.05;3.20;;;;;;;;;;5099327;28;20418;-70
2022/02/18 06:26:23;;;;;;;18.40;3.38;;;;;;;;;;5094575;28;20446;-69
2022/02/18 06:28:50;;;;;;;25.23;3.75;;;;;;;;;;5089035;28;20155;-69
2022/02/18 06:31:18;;;;;;;21.83;3.05;;;;;;;;;;5089838;28;20073;-69
2022/02/18 06:33:46;;;;;;;21.60;3.25;;;;;;;;;;5089557;28;20043;-70
2022/02/18 06:36:13;;;;;;;29.10;3.47;;;;;;;;;;5088464;28;20499;-69
2022/02/18 06:38:42;;;;;;;27.42;2.47;;;;;;;;;;5089181;28;20136;-69
2022/02/18 06:41:09;;;;;;;36.28;3.45;;;;;;;;;;5073129;28;20122;-69
2022/02/18 06:43:36;;;;;;;31.70;4.23;;;;;;;;;;5099533;27;20092;-69
2022/02/18 06:46:02;;;;;;;17.00;3.33;;;;;;;;;;5094156;28;20290;-69
2022/02/18 06:48:29;;;;;;;20.43;2.73;;;;;;;;;;5096579;28;20689;-69
2022/02/18 06:50:55;;;;;;;18.65;3.47;;;;;;;;;;5087827;28;20072;-70
2022/02/18 06:53:29;;;;;;;18.20;3.13;;;;;;;;;;5096902;28;20139;-70
2022/02/18 06:55:55;;;;;;;28.02;3.45;;;;;;;;;;5095320;28;20127;-69
2022/02/18 06:58:21;;;;;;;24.77;3.72;;;;;;;;;;5092790;28;20092;-69
2022/02/18 07:00:51;;;;;;;24.42;3.95;;;;;;;;;;5087422;28;20443;-69
2022/02/18 07:03:19;;;;;;;24.48;6.47;;;;;;;;;;5094074;28;20484;-69
2022/02/18 07:05:46;;;;;;;26.95;4.68;;;;;;;;;;5099036;28;20134;-69
2022/02/18 07:08:13;;;;;;;23.95;3.60;;;;;;;;;;5090635;28;20074;-69
2022/02/18 07:10:41;;;;;;;19.35;3.17;;;;;;;;;;5088283;28;20036;-69
2022/02/18 07:13:08;;;;;;;24.08;3.10;;;;;;;;;;5088398;28;20658;-68
2022/02/18 07:15:36;;;;;;;20.25;3.25;;;;;;;;;;5086040;28;20581;-69
2022/02/18 07:18:03;;;;;;;18.40;2.78;;;;;;;;;;5094197;28;20518;-68
2022/02/18 07:20:29;;;;;;;22.88;3.08;;;;;;;;;;5096935;28;20174;-68
2022/02/18 07:22:59;;;;;;;24.02;3.55;;;;;;;;;;5088530;28;20097;-68
2022/02/18 07:25:26;;;;;;;32.58;4.35;;;;;;;;;;5086976;28;20522;-68
2022/02/18 07:27:53;;;;;;;20.02;3.50;;;;;;;;;;5088938;28;20047;-69
2022/02/18 07:30:21;;;;;;;23.20;3.55;;;;;;;;;;5093899;28;20571;-69
2022/02/18 07:32:48;;;;;;;36.17;4.18;;;;;;;;;;5096562;28;20571;-69
2022/02/18 07:35:14;;;;;;;26.98;3.80;;;;;;;;;;5095281;28;20495;-69
2022/02/18 07:37:44;;;;;;;33.42;3.92;;;;;;;;;;5093665;28;20056;-70
2022/02/18 07:40:12;;;;;;;30.00;3.72;;;;;;;;;;5094208;28;20051;-69
2022/02/18 07:42:39;;;;;;;22.77;3.17;;;;;;;;;;5094744;28;20043;-69
2022/02/18 07:45:06;;;;;;;22.65;3.88;;;;;;;;;;5094549;28;20142;-69
2022/02/18 07:47:32;;;;;;;27.70;3.78;;;;;;;;;;5090915;28;20075;-69
2022/02/18 07:49:59;;;;;;;25.20;3.83;;;;;;;;;;5097154;28;20052;-69
2022/02/18 07:52:27;;;;;;;18.75;3.33;;;;;;;;;;5097959;28;20075;-69
2022/02/18 07:54:56;;;;;;;41.28;4.57;;;;;;;;;;5094618;28;20134;-69
2022/02/18 07:57:23;;;;;;;13.43;2.70;;;;;;;;;;5098882;28;20077;-69
2022/02/18 07:59:57;;;;;;;24.75;3.33;;;;;;;;;;5094796;28;20087;-69
2022/02/18 08:02:23;;;;;;;30.73;3.58;;;;;;;;;;5080376;28;20131;-69
2022/02/18 08:04:49;;;;;;;25.98;3.67;;;;;;;;;;5100163;28;20102;-69
2022/02/18 08:07:23;;;;;;;19.58;3.75;;;;;;;;;;5099349;28;20110;-69
2022/02/18 08:09:49;;;;;;;15.93;2.95;;;;;;;;;;5095775;28;20122;-69
2022/02/18 08:12:16;;;;;;;22.73;3.72;;;;;;;;;;5097095;28;20127;-69
2022/02/18 08:14:43;;;;;;;20.73;3.45;;;;;;;;;;5096230;28;20632;-69
2022/02/18 08:17:09;;;;;;;27.13;3.15;;;;;;;;;;5098831;28;20086;-69
2022/02/18 08:19:36;;;;;;;15.82;2.67;;;;;;;;;;5094952;28;20083;-69
2022/02/18 08:22:05;;;;;;;20.38;3.55;;;;;;;;;;5097438;28;20052;-70
2022/02/18 08:24:35;;;;;;;18.92;2.90;;;;;;;;;;5095762;28;20048;-69
2022/02/18 08:27:02;;;;;;;18.33;2.75;;;;;;;;;;5097032;28;20139;-70
2022/02/18 08:29:31;;;;;;;24.17;3.75;;;;;;;;;;5095593;28;20574;-70
2022/02/18 08:31:58;;;;;;;23.45;3.40;;;;;;;;;;5097397;28;20139;-69
2022/02/18 08:34:24;;;;;;;17.52;2.85;;;;;;;;;;5095399;28;20052;-70
2022/02/18 08:37:01;;;;;;;22.55;3.17;;;;;;;;;;5098992;28;20056;-70
2022/02/18 08:39:28;;;;;;;22.42;2.30;;;;;;;;;;5097299;28;20071;-70
2022/02/18 08:41:54;;;;;;;22.50;3.13;;;;;;;;;;5097258;28;20084;-69
2022/02/18 08:44:22;;;;;;;11.63;2.30;;;;;;;;;;5095407;28;20415;-69
2022/02/18 08:46:48;;;;;;;18.98;2.45;;;;;;;;;;5097934;28;20289;-69
2022/02/18 08:49:15;;;;;;;13.40;2.70;;;;;;;;;;5097907;28;20852;-69
2022/02/18 08:51:48;;;;;;;19.10;2.80;;;;;;;;;;5102215;28;20052;-69
2022/02/18 08:54:15;;;;;;;17.73;2.88;;;;;;;;;;5104436;27;20134;-70
2022/02/18 08:56:41;;;;;;;12.23;2.35;;;;;;;;;;5098723;28;20141;-70
2022/02/18 08:59:11;;;;;;;19.77;2.47;;;;;;;;;;5098372;28;20131;-69
2022/02/18 09:01:43;;;;;;;17.58;2.85;;;;;;;;;;5099093;28;20048;-69
2022/02/18 09:04:09;;;;;;;22.00;3.35;;;;;;;;;;5101234;28;20473;-70
2022/02/18 09:06:36;;;;;;;22.20;2.73;;;;;;;;;;5101316;28;20550;-69
2022/02/18 09:09:02;;;;;;;20.13;3.50;;;;;;;;;;5103436;28;20719;-69
2022/02/18 09:11:29;;;;;;;16.07;3.00;;;;;;;;;;5101407;28;20150;-69
2022/02/18 09:13:55;;;;;;;21.63;3.38;;;;;;;;;;5099994;28;20056;-69
2022/02/18 09:16:22;;;;;;;16.75;3.22;;;;;;;;;;5099152;28;20147;-70
2022/02/18 09:18:49;;;;;;;23.02;3.05;;;;;;;;;;5103323;27;20507;-69
2022/02/18 09:21:17;;;;;;;18.25;3.00;;;;;;;;;;5097764;28;20082;-69
2022/02/18 09:23:56;;;;;;;16.85;2.67;;;;;;;;;;5098653;28;20047;-69
2022/02/18 09:26:30;;;;;;;25.33;2.83;;;;;;;;;;5100252;28;20131;-69
2022/02/18 09:28:56;;;;;;;30.55;3.10;;;;;;;;;;5098400;28;20123;-69
2022/02/18 09:31:23;;;;;;;24.77;3.50;;;;;;;;;;5089018;28;20175;-69
2022/02/18 09:33:52;;;;;;;18.83;2.58;;;;;;;;;;5090685;28;20075;-69
2022/02/18 09:36:19;;;;;;;19.58;3.03;;;;;;;;;;5088535;28;20146;-69
2022/02/18 09:38:45;;;;;;;22.40;4.13;;;;;;;;;;5102418;28;20060;-69
2022/02/18 09:41:12;;;;;;;28.63;4.60;;;;;;;;;;5092708;28;20510;-69
2022/02/18 09:43:40;;;;;;;15.38;2.80;;;;;;;;;;5090897;28;20171;-69
2022/02/18 09:46:07;;;;;;;13.68;2.85;;;;;;;;;;5089340;28;20054;-69
2022/02/18 09:48:37;;;;;;;16.30;3.00;;;;;;;;;;5090113;28;20613;-69
2022/02/18 09:51:04;;;;;;;17.65;3.42;;;;;;;;;;5088511;27;20570;-69
2022/02/18 09:53:31;;;;;;;14.45;3.15;;;;;;;;;;5091168;28;20080;-69
2022/02/18 09:56:00;;;;;;;18.30;3.35;;;;;;;;;;5088080;28;20079;-69
2022/02/18 09:58:27;;;;;;;17.95;2.47;;;;;;;;;;5088292;28;20068;-69
2022/02/18 10:00:53;;;;;;;16.10;3.03;;;;;;;;;;5089410;28;20138;-69
2022/02/18 10:03:23;;;;;;;12.45;3.17;;;;;;;;;;5089014;27;20507;-69
2022/02/18 10:05:49;;;;;;;19.95;2.88;;;;;;;;;;5092637;28;20069;-69
2022/02/18 10:08:18;;;;;;;13.15;2.60;;;;;;;;;;5089894;28;20076;-69
2022/02/18 10:11:00;;;;;;;23.80;2.90;;;;;;;;;;5089038;28;20076;-69
2022/02/18 10:13:29;;;;;;;18.63;2.90;;;;;;;;;;5089292;28;20415;-70
2022/02/18 10:16:10;;;;;;;24.20;3.58;;;;;;;;;;5090684;28;20420;-69
2022/02/18 10:18:49;;;;;;;25.70;3.88;;;;;;;;;;5087763;28;20044;-69
2022/02/18 10:21:27;;;;;;;23.13;3.85;;;;;;;;;;5097028;28;20081;-69
2022/02/18 10:24:12;;;;;;;27.30;4.63;;;;;;;;;;5094242;28;20075;-70
2022/02/18 10:26:47;;;;;;;29.13;4.63;;;;;;;;;;5069552;28;20131;-69
2022/02/18 10:29:18;;;;;;;30.40;4.03;;;;;;;;;;5094729;28;20131;-69
2022/02/18 10:31:44;;;;;;;25.33;4.22;;;;;;;;;;5100069;28;20110;-69
2022/02/18 10:34:14;;;;;;;35.33;4.22;;;;;;;;;;5096121;28;20134;-69
2022/02/18 10:36:41;;;;;;;20.65;2.72;;;;;;;;;;5090392;28;20071;-69
2022/02/18 10:39:23;;;;;;;17.60;2.63;;;;;;;;;;5088683;28;20048;-69
2022/02/18 10:41:51;;;;;;;28.60;4.28;;;;;;;;;;5098580;28;20135;-69
2022/02/18 10:44:17;;;;;;;23.77;3.50;;;;;;;;;;5098064;28;20378;-69
2022/02/18 10:46:45;;;;;;;31.97;4.00;;;;;;;;;;5096395;28;20072;-69
2022/02/18 10:49:22;;;;;;;34.45;4.05;;;;;;;;;;5089300;28;20570;-69
2022/02/18 10:51:50;;;;;;;29.23;4.88;;;;;;;;;;5096661;28;20522;-69
2022/02/18 10:54:17;;;;;;;44.22;5.88;;;;;;;;;;5083987;28;20589;-69
2022/02/18 10:56:44;;;;;;;22.02;3.88;;;;;;;;;;5090835;28;20118;-69
2022/02/18 10:59:11;;;;;;;29.23;3.70;;;;;;;;;;5085555;28;20093;-69
2022/02/18 11:01:47;;;;;;;32.97;5.13;;;;;;;;;;5090212;28;20135;-69
2022/02/18 11:04:13;;;;;;;29.77;5.47;;;;;;;;;;5094215;28;20075;-68
2022/02/18 11:06:40;;;;;;;35.28;5.63;;;;;;;;;;5092519;28;20131;-68
2022/02/18 11:09:11;;;;;;;36.60;5.43;;;;;;;;;;5092702;28;20131;-68
2022/02/18 11:11:38;;;;;;;29.30;4.40;;;;;;;;;;5091789;28;20055;-69
2022/02/18 11:14:05;;;;;;;39.35;4.53;;;;;;;;;;5088950;28;20130;-69
2022/02/18 11:16:35;;;;;;;29.58;4.18;;;;;;;;;;5085708;28;20055;-69
2022/02/18 11:19:02;;;;;;;36.13;5.13;;;;;;;;;;5087577;28;20201;-69
2022/02/18 11:21:29;;;;;;;25.42;4.28;;;;;;;;;;5088452;28;20631;-68
2022/02/18 11:24:04;;;;;;;30.15;4.43;;;;;;;;;;5088052;28;20147;-68
2022/02/18 11:26:30;;;;;;;;;;;;;;;;;;5089184;28;20071;-68
2022/02/18 11:28:58;;;;;;;26.35;4.72;;;;;;;;;;5088498;28;19928;-68
2022/02/18 11:31:36;;;;;;;35.30;4.25;;;;;;;;;;5095952;28;20467;-68
2022/02/18 11:34:04;;;;;;;39.33;4.60;;;;;;;;;;5095343;28;20122;-69
2022/02/18 11:36:30;;;;;;;32.28;4.82;;;;;;;;;;5086702;27;20178;-68
2022/02/18 11:38:58;;;;;;;28.38;4.47;;;;;;;;;;5086612;28;20048;-69
2022/02/18 11:41:31;;;;;;;25.77;3.30;;;;;;;;;;5088691;28;20145;-68
2022/02/18 11:44:00;;;;;;;32.88;4.22;;;;;;;;;;5087154;28;20055;-69
2022/02/18 11:46:27;;;;;;;34.95;5.07;;;;;;;;;;5087745;28;20494;-68
2022/02/18 11:48:56;;;;;;;29.73;4.57;;;;;;;;;;5088168;28;20138;-68
2022/02/18 11:51:25;;;;;;;21.83;3.40;;;;;;;;;;5095779;28;20122;-68
2022/02/18 11:53:59;;;;;;;28.15;5.05;;;;;;;;;;5088723;28;20067;-68
2022/02/18 11:56:35;;;;;;;26.70;3.95;;;;;;;;;;5087781;28;20043;-69
2022/02/18 11:59:05;;;;;;;27.30;5.00;;;;;;;;;;5086519;28;20079;-68
2022/02/18 12:01:48;;;;;;;21.13;4.40;;;;;;;;;;5086161;28;20126;-68
2022/02/18 12:04:16;;;;;;;25.58;3.58;;;;;;;;;;5085889;28;20048;-68
2022/02/18 12:07:05;;;;;;;25.90;4.03;;;;;;;;;;5087239;28;20079;-68
2022/02/18 12:09:36;;;;;;;22.10;3.28;;;;;;;;;;5087870;28;20086;-68
2022/02/18 12:12:04;;;;;;;23.58;3.30;;;;;;;;;;5091778;28;20096;-69
2022/02/18 12:14:31;;;;;;;28.80;3.42;;;;;;;;;;5087020;28;20069;-68
2022/02/18 12:16:59;;;;;;;25.67;4.20;;;;;;;;;;5086817;28;20131;-68
2022/02/18 12:19:27;;;;;;;32.10;4.45;;;;;;;;;;5087700;28;20138;-68
2022/02/18 12:21:57;;;;;;;31.63;4.05;;;;;;;;;;5096189;28;20078;-70
2022/02/18 12:24:43;;;;;;;36.42;4.78;;;;;;;;;;5097450;28;20182;-68
2022/02/18 12:27:19;;;;;;;31.40;3.92;;;;;;;;;;5091965;28;20071;-68
2022/02/18 12:29:46;;;;;;;21.67;4.07;;;;;;;;;;5100747;28;20098;-68
2022/02/18 12:32:13;;;;;;;27.63;3.40;;;;;;;;;;5093703;28;20082;-68
2022/02/18 12:35:00;;;;;;;27.88;4.78;;;;;;;;;;5097368;28;20093;-69
2022/02/18 12:37:26;;;;;;;25.08;4.18;;;;;;;;;;5101503;27;20131;-68
2022/02/18 12:39:57;;;;;;;24.23;4.28;;;;;;;;;;5102423;28;20087;-68
2022/02/18 12:42:26;;;;;;;23.60;3.90;;;;;;;;;;5092715;28;20044;-68
2022/02/18 12:44:57;;;;;;;30.65;4.75;;;;;;;;;;5090683;28;20551;-68
2022/02/18 12:47:28;;;;;;;20.70;3.88;;;;;;;;;;5090903;28;20048;-68
2022/02/18 12:49:56;;;;;;;28.80;4.43;;;;;;;;;;5091899;28;20620;-68
2022/02/18 12:52:26;;;;;;;28.40;4.20;;;;;;;;;;5091528;28;20132;-68
2022/02/18 12:54:58;;;;;;;37.38;5.15;;;;;;;;;;5071956;28;20096;-69
2022/02/18 12:57:26;;;;;;;33.53;4.10;;;;;;;;;;5090206;28;20075;-68
2022/02/18 12:59:55;;;;;;;26.50;4.45;;;;;;;;;;5093221;28;20502;-68
2022/02/18 13:02:40;;;;;;;21.00;3.97;;;;;;;;;;5100170;28;20124;-68
2022/02/18 13:05:08;;;;;;;29.77;3.47;;;;;;;;;;5098327;28;20040;-69
2022/02/18 13:07:35;;;;;;;24.10;4.15;;;;;;;;;;5095024;28;20106;-68
2022/02/18 13:10:06;;;;;;;25.90;4.30;;;;;;;;;;5089479;28;20132;-68
2022/02/18 13:12:33;;;;;;;28.83;3.60;;;;;;;;;;5090025;28;20134;-68
2022/02/18 13:15:13;;;;;;;27.90;3.97;;;;;;;;;;5091494;28;22496;-68
2022/02/18 13:17:41;;;;;;;29.45;3.67;;;;;;;;;;5089537;28;20154;-68
2022/02/18 13:20:13;;;;;;;36.78;4.22;;;;;;;;;;5090590;28;20619;-68
2022/02/18 13:22:40;;;;;;;23.63;3.80;;;;;;;;;;5091706;28;20448;-68
2022/02/18 13:25:42;;;;;;;43.08;5.63;;;;;;;;;;5100347;28;20139;-68
2022/02/18 13:28:16;;;;;;;44.90;5.03;;;;;;;;;;5005464;28;20042;-68
2022/02/18 13:30:44;;;;;;;23.45;3.78;;;;;;;;;;5086271;28;20464;-68
2022/02/18 13:33:10;;;;;;;39.22;5.30;;;;;;;;;;5091860;28;20251;-68
2022/02/18 13:35:39;;;;;;;25.83;3.88;;;;;;;;;;5089099;28;20590;-69
2022/02/18 13:38:14;;;;;;;25.48;4.47;;;;;;;;;;5089182;28;20155;-68
2022/02/18 13:40:42;;;;;;;33.80;4.45;;;;;;;;;;5089864;28;20043;-68
2022/02/18 13:43:08;;;;;;;24.23;2.95;;;;;;;;;;5090955;28;20147;-68
2022/02/18 13:45:44;;;;;;;26.50;4.60;;;;;;;;;;5090056;28;20477;-68
2022/02/18 13:48:12;;;;;;;24.02;3.92;;;;;;;;;;5088728;28;20215;-68
2022/02/18 13:50:42;;;;;;;25.95;4.32;;;;;;;;;;5090263;28;20083;-68
2022/02/18 13:53:10;;;;;;;26.23;3.72;;;;;;;;;;5088563;28;20139;-68
2022/02/18 13:55:37;;;;;;;32.40;3.83;;;;;;;;;;5090271;28;20124;-68
2022/02/18 13:58:04;;;;;;;26.25;4.15;;;;;;;;;;5088113;28;20143;-68
2022/02/18 14:00:34;;;;;;;30.52;4.05;;;;;;;;;;5095726;28;20079;-68
2022/02/18 14:03:08;;;;;;;36.50;4.70;;;;;;;;;;5097382;28;20493;-69
2022/02/18 14:05:35;;;;;;;29.75;3.75;;;;;;;;;;5099522;28;20555;-68
2022/02/18 14:08:07;;;;;;;22.10;4.38;;;;;;;;;;5100742;28;20079;-68
2022/02/18 14:10:40;;;;;;;25.63;3.70;;;;;;;;;;5090137;28;20086;-68
2022/02/18 14:13:18;;;;;;;22.88;3.35;;;;;;;;;;5088880;28;20040;-68
2022/02/18 14:15:45;;;;;;;24.33;4.18;;;;;;;;;;5090735;28;20050;-68
2022/02/18 14:18:12;;;;;;;26.98;3.80;;;;;;;;;;5088486;28;20154;-68
2022/02/18 14:20:38;;;;;;;28.15;3.90;;;;;;;;;;5090728;28;20182;-68
2022/02/18 14:23:06;;;;;;;25.25;3.47;;;;;;;;;;5088815;28;20571;-68
2022/02/18 14:25:34;;;;;;;26.88;4.57;;;;;;;;;;5087549;28;20572;-68
2022/02/18 14:28:11;;;;;;;31.38;4.72;;;;;;;;;;5087396;28;20052;-68
2022/02/18 14:30:42;;;;;;;34.70;4.63;;;;;;;;;;5089044;28;20959;-68
2022/02/18 14:33:18;;;;;;;27.33;4.05;;;;;;;;;;5088285;28;20067;-68
2022/02/18 14:35:51;;;;;;;30.20;3.88;;;;;;;;;;5098620;28;20575;-68
2022/02/18 14:38:24;;;;;;;20.08;3.42;;;;;;;;;;5099212;27;20146;-68
2022/02/18 14:40:54;;;;;;;31.25;5.50;;;;;;;;;;5098127;28;20623;-68